createdAt,value
2022-10-22T00:02:20.566Z,10.80
2022-10-22T00:04:49.316Z,6.45
2022-10-22T00:07:18.276Z,5.50
2022-10-22T00:09:45.531Z,10.60
2022-10-22T00:12:13.634Z,7.05
2022-10-22T00:14:40.792Z,9.52
2022-10-22T00:17:11.186Z,10.93
2022-10-22T00:19:38.850Z,8.65
2022-10-22T00:22:05.825Z,5.82
2022-10-22T00:24:34.242Z,5.47
2022-10-22T00:27:03.433Z,4.75
2022-10-22T00:29:30.087Z,5.07
2022-10-22T00:31:56.992Z,5.10
2022-10-22T00:34:24.413Z,4.72
2022-10-22T00:36:52.373Z,6.10
2022-10-22T00:39:21.455Z,4.47
2022-10-22T00:41:50.138Z,7.05
2022-10-22T00:44:54.221Z,6.88
2022-10-22T00:47:23.757Z,5.20
2022-10-22T00:49:52.719Z,7.38
2022-10-22T00:52:19.928Z,7.75
2022-10-22T00:54:46.698Z,7.70
2022-10-22T00:57:13.479Z,7.15
2022-10-22T00:59:40.385Z,5.70
2022-10-22T01:02:07.180Z,8.63
2022-10-22T01:04:33.885Z,6.68
2022-10-22T01:07:01.178Z,6.90
2022-10-22T01:09:34.692Z,7.85
2022-10-22T01:12:28.234Z,7.53
2022-10-22T01:15:19.042Z,7.90
2022-10-22T01:18:03.831Z,10.20
2022-10-22T01:20:39.493Z,9.25
2022-10-22T01:23:55.472Z,8.10
2022-10-22T01:26:40.883Z,6.05
2022-10-22T01:29:12.162Z,6.20
2022-10-22T01:31:44.430Z,6.90
2022-10-22T01:34:14.205Z,5.30
2022-10-22T01:36:42.629Z,7.05
2022-10-22T01:39:10.760Z,4.68
2022-10-22T01:41:39.633Z,5.15
2022-10-22T01:44:06.257Z,8.45
2022-10-22T01:46:32.914Z,8.93
2022-10-22T01:49:23.798Z,9.40
2022-10-22T01:52:10.911Z,8.20
2022-10-22T01:54:51.943Z,9.55
2022-10-22T01:57:43.094Z,5.43
2022-10-22T02:00:12.505Z,4.30
2022-10-22T02:03:05.631Z,4.32
2022-10-22T02:05:44.739Z,4.60
2022-10-22T02:08:17.719Z,3.88
2022-10-22T02:10:47.829Z,3.78
2022-10-22T02:13:22.275Z,3.58
2022-10-22T02:15:51.785Z,5.13
2022-10-22T02:18:22.243Z,4.13
2022-10-22T02:20:49.573Z,3.70
2022-10-22T02:23:16.584Z,3.47
2022-10-22T02:25:48.101Z,3.83
2022-10-22T02:28:33.707Z,4.32
2022-10-22T02:31:13.247Z,3.92
2022-10-22T02:33:48.783Z,4.43
2022-10-22T02:36:17.207Z,4.40
2022-10-22T02:38:45.787Z,4.95
2022-10-22T02:41:12.458Z,4.13
2022-10-22T02:43:44.263Z,4.68
2022-10-22T02:46:11.695Z,5.72
2022-10-22T02:48:38.394Z,5.07
2022-10-22T02:51:05.188Z,7.47
2022-10-22T02:53:31.952Z,8.77
2022-10-22T02:55:59.498Z,5.70
2022-10-22T02:58:26.277Z,5.60
2022-10-22T03:00:53.002Z,7.43
2022-10-22T03:03:19.744Z,5.63
2022-10-22T03:05:46.396Z,7.35
2022-10-22T03:08:13.265Z,5.18
2022-10-22T03:10:39.894Z,3.75
2022-10-22T03:13:06.592Z,4.20
2022-10-22T03:15:33.282Z,3.63
2022-10-22T03:17:59.989Z,5.60
2022-10-22T03:20:26.754Z,6.50
2022-10-22T03:22:53.509Z,5.55
2022-10-22T03:25:23.906Z,5.75
2022-10-22T03:27:52.397Z,5.53
2022-10-22T03:30:19.187Z,5.18
2022-10-22T03:32:45.807Z,4.97
2022-10-22T03:35:12.444Z,7.78
2022-10-22T03:37:39.778Z,9.25
2022-10-22T03:40:08.091Z,7.40
2022-10-22T03:42:34.925Z,7.53
2022-10-22T03:45:02.965Z,9.10
2022-10-22T03:47:29.666Z,8.15
2022-10-22T03:49:56.310Z,9.43
2022-10-22T03:52:22.975Z,7.25
2022-10-22T03:54:49.630Z,5.03
2022-10-22T03:57:16.371Z,6.65
2022-10-22T03:59:45.002Z,6.50
2022-10-22T04:02:13.070Z,6.88
2022-10-22T04:04:40.104Z,8.55
2022-10-22T04:07:07.577Z,8.13
2022-10-22T04:09:35.170Z,8.13
2022-10-22T04:12:01.966Z,6.22
2022-10-22T04:14:28.680Z,7.15
2022-10-22T04:16:55.597Z,8.82
2022-10-22T04:19:22.377Z,8.85
2022-10-22T04:21:49.095Z,8.43
2022-10-22T04:24:16.033Z,4.40
2022-10-22T04:26:42.802Z,4.88
2022-10-22T04:29:13.432Z,4.60
2022-10-22T04:31:42.943Z,4.30
2022-10-22T04:34:09.604Z,3.28
2022-10-22T04:36:36.292Z,3.53
2022-10-22T04:39:04.214Z,2.80
2022-10-22T04:41:33.843Z,7.18
2022-10-22T04:44:00.817Z,5.78
2022-10-22T04:46:30.301Z,5.22
2022-10-22T04:48:56.994Z,4.50
2022-10-22T04:51:25.051Z,5.68
2022-10-22T04:53:51.805Z,5.97
2022-10-22T04:56:21.798Z,5.30
2022-10-22T04:58:56.552Z,4.88
2022-10-22T05:01:37.020Z,3.95
2022-10-22T05:04:08.368Z,3.53
2022-10-22T05:06:36.900Z,3.15
2022-10-22T05:09:21.957Z,3.67
2022-10-22T05:11:50.913Z,3.05
2022-10-22T05:14:23.153Z,3.50
2022-10-22T05:16:51.052Z,3.38
2022-10-22T05:19:24.686Z,4.18
2022-10-22T05:21:56.219Z,5.30
2022-10-22T05:24:23.617Z,3.70
2022-10-22T05:26:51.593Z,4.38
2022-10-22T05:29:18.843Z,4.28
2022-10-22T05:31:45.818Z,4.82
2022-10-22T05:34:12.926Z,4.00
2022-10-22T05:36:39.640Z,4.40
2022-10-22T05:39:06.431Z,5.00
2022-10-22T05:41:34.148Z,6.32
2022-10-22T05:44:01.091Z,3.88
2022-10-22T05:46:29.920Z,4.13
2022-10-22T05:49:02.297Z,3.75
2022-10-22T05:51:30.845Z,4.93
2022-10-22T05:54:02.681Z,4.07
2022-10-22T05:56:32.003Z,4.60
2022-10-22T05:58:59.264Z,5.72
2022-10-22T06:01:31.792Z,6.18
2022-10-22T06:04:01.117Z,5.90
2022-10-22T06:06:40.050Z,3.72
2022-10-22T06:09:16.917Z,3.20
2022-10-22T06:11:43.856Z,3.60
2022-10-22T06:14:11.230Z,3.78
2022-10-22T06:16:38.174Z,3.70
2022-10-22T06:19:05.357Z,5.05
2022-10-22T06:21:32.769Z,5.95
2022-10-22T06:24:05.107Z,5.20
2022-10-22T06:26:32.152Z,5.28
2022-10-22T06:28:59.521Z,3.95
2022-10-22T06:31:26.797Z,4.25
2022-10-22T06:33:53.597Z,4.63
2022-10-22T06:36:23.135Z,4.28
2022-10-22T06:38:56.574Z,4.57
2022-10-22T06:41:27.070Z,3.83
2022-10-22T06:43:57.358Z,4.43
2022-10-22T06:46:25.004Z,5.68
2022-10-22T06:48:53.965Z,5.60
2022-10-22T06:51:21.179Z,7.07
2022-10-22T06:53:48.322Z,7.90
2022-10-22T06:56:18.333Z,9.65
2022-10-22T06:58:48.499Z,5.13
2022-10-22T07:01:16.780Z,5.07
2022-10-22T07:03:43.521Z,5.95
2022-10-22T07:06:12.674Z,4.43
2022-10-22T07:08:40.180Z,4.55
2022-10-22T07:11:09.937Z,3.42
2022-10-22T07:13:36.911Z,3.40
2022-10-22T07:16:05.124Z,4.82
2022-10-22T07:18:32.755Z,4.55
2022-10-22T07:20:59.665Z,6.10
2022-10-22T07:23:27.031Z,6.93
2022-10-22T07:25:53.976Z,6.65
2022-10-22T07:28:21.008Z,6.38
2022-10-22T07:30:47.659Z,6.78
2022-10-22T07:33:14.769Z,5.90
2022-10-22T07:35:41.800Z,4.72
2022-10-22T07:38:08.853Z,5.85
2022-10-22T07:40:36.393Z,4.72
2022-10-22T07:43:04.446Z,6.13
2022-10-22T07:45:31.273Z,6.43
2022-10-22T07:47:59.512Z,5.70
2022-10-22T07:50:29.544Z,5.18
2022-10-22T07:52:58.200Z,4.05
2022-10-22T07:55:25.665Z,3.75
2022-10-22T07:57:53.655Z,4.13
2022-10-22T08:00:23.124Z,3.90
2022-10-22T08:02:51.948Z,4.13
2022-10-22T08:05:18.638Z,5.25
2022-10-22T08:07:47.880Z,3.60
2022-10-22T08:10:14.549Z,5.78
2022-10-22T08:12:42.181Z,4.78
2022-10-22T08:15:09.756Z,4.43
2022-10-22T08:17:37.260Z,4.20
2022-10-22T08:20:04.485Z,4.47
2022-10-22T08:22:31.179Z,3.97
2022-10-22T08:24:57.940Z,5.18
2022-10-22T08:27:24.630Z,4.47
2022-10-22T08:29:51.264Z,4.60
2022-10-22T08:32:18.100Z,4.70
2022-10-22T08:34:44.764Z,3.92
2022-10-22T08:37:14.232Z,4.38
2022-10-22T08:39:41.544Z,5.72
2022-10-22T08:42:35.779Z,4.88
2022-10-22T08:45:23.942Z,4.63
2022-10-22T08:48:06.456Z,4.63
2022-10-22T08:50:41.495Z,4.43
2022-10-22T08:53:32.044Z,5.05
2022-10-22T08:55:59.112Z,5.10
2022-10-22T08:58:28.518Z,4.30
2022-10-22T09:01:27.392Z,4.30
2022-10-22T09:04:12.686Z,4.00
2022-10-22T09:06:41.431Z,3.72
2022-10-22T09:09:36.270Z,4.75
2022-10-22T09:12:04.931Z,4.38
2022-10-22T09:14:31.747Z,4.10
2022-10-22T09:17:19.385Z,3.92
2022-10-22T09:20:08.458Z,3.60
2022-10-22T09:22:42.479Z,3.08
2022-10-22T09:25:26.459Z,3.22
2022-10-22T09:27:58.177Z,3.10
2022-10-22T09:30:28.421Z,2.80
2022-10-22T09:33:05.753Z,2.78
2022-10-22T09:36:03.293Z,2.85
2022-10-22T09:38:33.066Z,2.95
2022-10-22T09:41:03.640Z,2.90
2022-10-22T09:43:31.110Z,2.83
2022-10-22T09:46:00.638Z,2.80
2022-10-22T09:48:34.589Z,2.67
2022-10-22T09:51:18.167Z,2.58
2022-10-22T09:53:56.377Z,2.72
2022-10-22T09:56:35.518Z,2.38
2022-10-22T09:59:02.386Z,2.72
2022-10-22T10:01:33.333Z,2.20
2022-10-22T10:04:11.022Z,2.88
2022-10-22T10:06:40.448Z,2.67
2022-10-22T10:09:16.956Z,2.40
2022-10-22T10:11:58.883Z,2.60
2022-10-22T10:14:42.201Z,2.80
2022-10-22T10:17:29.075Z,2.03
2022-10-22T10:20:20.529Z,2.10
2022-10-22T10:23:16.220Z,2.30
2022-10-22T10:26:07.058Z,2.42
2022-10-22T10:29:00.199Z,2.13
2022-10-22T10:32:04.110Z,2.03
2022-10-22T10:34:51.697Z,2.45
2022-10-22T10:37:53.747Z,2.10
2022-10-22T10:40:37.128Z,2.22
2022-10-22T10:43:09.814Z,2.13
2022-10-22T10:45:59.762Z,1.95
2022-10-22T10:48:39.142Z,2.17
2022-10-22T10:51:31.370Z,2.08
2022-10-22T10:56:48.049Z,2.67
2022-10-22T10:59:28.491Z,2.00
2022-10-22T11:02:10.105Z,2.30
2022-10-22T11:05:05.973Z,1.60
2022-10-22T11:07:49.922Z,2.05
2022-10-22T11:10:39.835Z,2.28
2022-10-22T11:13:34.568Z,2.03
2022-10-22T11:16:20.709Z,2.05
2022-10-22T11:19:11.315Z,2.25
2022-10-22T11:21:45.969Z,2.10
2022-10-22T11:24:52.024Z,2.88
2022-10-22T11:27:43.678Z,2.25
2022-10-22T11:30:19.932Z,1.90
2022-10-22T11:32:54.875Z,1.90
2022-10-22T11:35:28.132Z,1.80
2022-10-22T11:37:57.068Z,2.90
2022-10-22T11:40:31.924Z,1.90
2022-10-22T11:43:07.171Z,1.60
2022-10-22T11:45:40.183Z,1.77
2022-10-22T11:48:19.286Z,2.05
2022-10-22T11:51:02.846Z,1.95
2022-10-22T11:53:36.031Z,2.28
2022-10-22T11:56:24.421Z,1.70
2022-10-22T11:58:53.975Z,1.98
2022-10-22T12:01:23.642Z,2.05
2022-10-22T12:03:59.407Z,1.75
2022-10-22T12:06:27.904Z,1.95
2022-10-22T12:08:54.693Z,1.70
2022-10-22T12:11:26.279Z,1.75
2022-10-22T12:13:58.827Z,1.70
2022-10-22T12:16:44.096Z,2.20
2022-10-22T12:19:17.940Z,2.03
2022-10-22T12:21:51.755Z,1.52
2022-10-22T12:24:22.192Z,2.20
2022-10-22T12:26:52.397Z,1.80
2022-10-22T12:29:23.662Z,1.60
2022-10-22T12:31:50.584Z,1.58
2022-10-22T12:34:21.287Z,1.40
2022-10-22T12:36:50.534Z,1.60
2022-10-22T12:39:21.019Z,1.77
2022-10-22T12:41:47.719Z,1.75
2022-10-22T12:44:16.588Z,2.47
2022-10-22T12:46:51.813Z,2.47
2022-10-22T12:49:27.731Z,1.85
2022-10-22T12:51:54.795Z,1.48
2022-10-22T12:54:31.179Z,2.13
2022-10-22T12:56:58.613Z,2.28
2022-10-22T12:59:26.431Z,1.63
2022-10-22T13:01:53.905Z,1.73
2022-10-22T13:04:33.475Z,1.70
2022-10-22T13:07:12.370Z,1.70
2022-10-22T13:09:41.729Z,1.85
2022-10-22T13:12:16.714Z,1.48
2022-10-22T13:14:45.618Z,2.08
2022-10-22T13:17:15.019Z,2.30
2022-10-22T13:19:52.731Z,1.70
2022-10-22T13:22:40.063Z,1.58
2022-10-22T13:25:16.012Z,1.48
2022-10-22T13:28:19.522Z,1.40
2022-10-22T13:30:54.910Z,1.38
2022-10-22T13:33:35.519Z,1.52
2022-10-22T13:36:04.373Z,1.30
2022-10-22T13:38:31.000Z,1.20
2022-10-22T13:40:59.193Z,1.52
2022-10-22T13:43:28.973Z,1.60
2022-10-22T13:45:58.864Z,1.38
2022-10-22T13:48:28.027Z,1.50
2022-10-22T13:50:54.898Z,1.45
2022-10-22T13:53:25.820Z,1.30
2022-10-22T13:55:53.255Z,1.10
2022-10-22T13:58:23.811Z,1.30
2022-10-22T14:01:00.727Z,1.60
2022-10-22T14:03:31.565Z,2.00
2022-10-22T14:05:58.343Z,1.40
2022-10-22T14:08:26.842Z,1.52
2022-10-22T14:10:54.365Z,2.25
2022-10-22T14:13:21.569Z,1.45
2022-10-22T14:15:50.046Z,1.60
2022-10-22T14:18:28.007Z,1.50
2022-10-22T14:20:57.620Z,1.40
2022-10-22T14:23:27.342Z,1.45
2022-10-22T14:25:54.734Z,1.45
2022-10-22T14:28:21.608Z,1.38
2022-10-22T14:30:48.547Z,1.70
2022-10-22T14:33:19.153Z,1.20
2022-10-22T14:35:45.935Z,1.92
2022-10-22T14:38:12.786Z,1.50
2022-10-22T14:40:46.142Z,1.55
2022-10-22T14:43:28.239Z,1.40
2022-10-22T14:45:55.763Z,1.55
2022-10-22T14:48:22.481Z,1.40
2022-10-22T14:50:49.238Z,1.30
2022-10-22T14:53:17.135Z,1.50
2022-10-22T14:55:44.945Z,1.70
2022-10-22T14:58:12.420Z,1.70
2022-10-22T15:00:42.532Z,1.90
2022-10-22T15:03:10.179Z,1.63
2022-10-22T15:05:43.500Z,1.63
2022-10-22T15:08:14.468Z,1.80
2022-10-22T15:10:41.691Z,1.92
2022-10-22T15:13:08.523Z,1.95
2022-10-22T15:15:39.562Z,1.70
2022-10-22T15:18:07.219Z,2.75
2022-10-22T15:20:33.896Z,2.90
2022-10-22T15:23:00.727Z,1.95
2022-10-22T15:25:27.526Z,2.03
2022-10-22T15:27:57.585Z,2.13
2022-10-22T15:30:28.670Z,2.38
2022-10-22T15:32:55.325Z,1.67
2022-10-22T15:35:21.996Z,1.80
2022-10-22T15:37:51.442Z,2.20
2022-10-22T15:40:18.111Z,2.72
2022-10-22T15:42:46.574Z,2.47
2022-10-22T15:45:13.333Z,2.15
2022-10-22T15:47:40.302Z,2.15
2022-10-22T15:50:07.846Z,1.95
2022-10-22T15:52:34.540Z,2.30
2022-10-22T15:55:04.148Z,1.55
2022-10-22T15:57:30.928Z,1.77
2022-10-22T15:59:57.692Z,1.70
2022-10-22T16:02:24.455Z,1.45
2022-10-22T16:04:51.290Z,1.50
2022-10-22T16:07:19.845Z,2.00
2022-10-22T16:09:49.361Z,2.22
2022-10-22T16:12:17.313Z,2.10
2022-10-22T16:14:44.134Z,3.95
2022-10-22T16:17:10.942Z,3.40
2022-10-22T16:19:38.122Z,5.13
2022-10-22T16:22:06.466Z,4.95
2022-10-22T16:24:33.561Z,3.90
2022-10-22T16:27:00.318Z,2.97
2022-10-22T16:29:27.052Z,3.35
2022-10-22T16:31:53.723Z,3.08
2022-10-22T16:34:20.426Z,2.78
2022-10-22T16:36:47.488Z,2.28
2022-10-22T16:39:14.290Z,2.20
2022-10-22T16:41:41.046Z,2.20
2022-10-22T16:44:08.704Z,2.47
2022-10-22T16:46:38.266Z,2.35
2022-10-22T16:49:06.226Z,2.70
2022-10-22T16:51:33.512Z,3.75
2022-10-22T16:54:00.313Z,3.13
2022-10-22T16:56:27.149Z,3.45
2022-10-22T16:58:56.719Z,3.10
2022-10-22T17:01:26.448Z,3.15
2022-10-22T17:03:56.380Z,3.40
2022-10-22T17:06:28.420Z,2.80
2022-10-22T17:08:55.210Z,2.67
2022-10-22T17:11:24.304Z,3.05
2022-10-22T17:13:53.260Z,3.58
2022-10-22T17:16:23.237Z,3.45
2022-10-22T17:18:50.989Z,3.05
2022-10-22T17:21:18.726Z,2.60
2022-10-22T17:23:46.218Z,3.15
2022-10-22T17:26:21.487Z,3.33
2022-10-22T17:28:48.898Z,3.28
2022-10-22T17:31:22.278Z,3.20
2022-10-22T17:33:51.333Z,3.60
2022-10-22T17:36:19.453Z,4.25
2022-10-22T17:38:50.750Z,4.72
2022-10-22T17:41:19.995Z,4.60
2022-10-22T17:43:47.721Z,5.25
2022-10-22T17:46:23.498Z,4.93
2022-10-22T17:48:55.641Z,5.32
2022-10-22T17:51:24.041Z,4.57
2022-10-22T17:53:51.133Z,5.65
2022-10-22T17:56:21.003Z,4.10
2022-10-22T17:58:47.976Z,3.50
2022-10-22T18:01:27.144Z,2.90
2022-10-22T18:03:55.477Z,2.63
2022-10-22T18:06:23.047Z,4.28
2022-10-22T18:08:49.786Z,9.05
2022-10-22T18:11:19.855Z,8.75
2022-10-22T18:13:51.011Z,10.07
2022-10-22T18:16:19.024Z,7.88
2022-10-22T18:18:50.270Z,7.95
2022-10-22T18:21:18.065Z,5.95
2022-10-22T18:23:45.602Z,6.20
2022-10-22T18:26:13.485Z,5.93
2022-10-22T18:28:40.191Z,6.38
2022-10-22T18:31:12.939Z,5.90
2022-10-22T18:33:40.779Z,5.82
2022-10-22T18:36:10.688Z,4.32
2022-10-22T18:38:40.648Z,4.05
2022-10-22T18:41:09.447Z,6.30
2022-10-22T18:43:38.616Z,8.50
2022-10-22T18:46:09.334Z,7.85
2022-10-22T18:48:36.744Z,9.60
2022-10-22T18:51:08.896Z,10.73
2022-10-22T18:53:37.105Z,9.35
2022-10-22T18:56:09.082Z,8.60
2022-10-22T19:01:10.675Z,8.45
2022-10-22T19:03:40.015Z,8.07
2022-10-22T19:06:07.641Z,9.73
2022-10-22T19:08:36.615Z,8.32
2022-10-22T19:11:13.196Z,9.05
2022-10-22T19:13:40.416Z,6.90
2022-10-22T19:16:12.527Z,8.60
2022-10-22T19:18:39.244Z,13.18
2022-10-22T19:21:06.234Z,9.82
2022-10-22T19:23:33.030Z,8.52
2022-10-22T19:26:12.336Z,6.88
2022-10-22T19:28:40.023Z,6.03
2022-10-22T19:31:08.350Z,7.85
2022-10-22T19:33:35.804Z,5.70
2022-10-22T19:36:11.763Z,6.03
2022-10-22T19:38:40.592Z,4.88
2022-10-22T19:41:08.649Z,8.10
2022-10-22T19:43:35.298Z,10.15
2022-10-22T19:46:03.917Z,10.35
2022-10-22T19:48:32.154Z,11.27
2022-10-22T19:51:08.449Z,9.57
2022-10-22T19:53:37.594Z,8.65
2022-10-22T19:56:09.728Z,5.93
2022-10-22T19:58:37.629Z,6.07
2022-10-22T20:01:09.565Z,5.70
2022-10-22T20:06:05.164Z,9.48
2022-10-22T20:08:34.457Z,8.02
2022-10-22T20:11:06.396Z,6.70
2022-10-22T20:16:00.573Z,5.35
2022-10-22T20:18:27.436Z,5.13
2022-10-22T20:20:54.098Z,5.20
2022-10-22T20:23:20.928Z,4.70
2022-10-22T20:25:48.364Z,5.15
2022-10-22T20:28:15.343Z,5.13
2022-10-22T20:30:45.975Z,5.68
2022-10-22T20:33:13.330Z,6.75
2022-10-22T20:35:40.078Z,8.38
2022-10-22T20:38:07.470Z,9.77
2022-10-22T20:40:34.489Z,7.22
2022-10-22T20:43:01.975Z,5.22
2022-10-22T20:45:29.167Z,5.20
2022-10-22T20:48:02.789Z,5.88
2022-10-22T20:50:32.176Z,5.95
2022-10-22T20:52:59.468Z,7.55
2022-10-22T20:55:26.905Z,6.60
2022-10-22T20:57:53.941Z,6.75
2022-10-22T21:00:20.792Z,5.13
2022-10-22T21:02:47.556Z,5.53
2022-10-22T21:05:14.339Z,7.55
2022-10-22T21:07:41.207Z,9.15
2022-10-22T21:10:08.378Z,9.88
2022-10-22T21:12:35.108Z,6.95
2022-10-22T21:15:01.916Z,5.72
2022-10-22T21:17:28.659Z,6.03
2022-10-22T21:19:55.385Z,5.07
2022-10-22T21:22:22.098Z,6.82
2022-10-22T21:24:48.725Z,8.13
2022-10-22T21:27:15.422Z,7.65
2022-10-22T21:29:42.079Z,7.35
2022-10-22T21:32:09.353Z,6.70
2022-10-22T21:34:38.878Z,5.20
2022-10-22T21:37:05.920Z,7.85
2022-10-22T21:39:32.700Z,8.43
2022-10-22T21:41:59.389Z,6.05
2022-10-22T21:44:26.074Z,6.35
2022-10-22T21:46:52.833Z,8.57
2022-10-22T21:49:19.520Z,8.82
2022-10-22T21:51:46.211Z,10.30
2022-10-22T21:54:13.024Z,13.50
2022-10-22T21:56:40.522Z,10.65
2022-10-22T21:59:07.969Z,10.38
2022-10-22T22:01:35.581Z,9.63
2022-10-22T22:04:03.102Z,9.95
2022-10-22T22:06:33.374Z,7.30
2022-10-22T22:09:01.563Z,6.97
2022-10-22T22:11:28.981Z,6.53
2022-10-22T22:13:57.199Z,5.82
2022-10-22T22:16:28.702Z,6.40
2022-10-22T22:18:58.197Z,10.23
2022-10-22T22:21:24.912Z,12.02
2022-10-22T22:23:51.639Z,12.10
2022-10-22T22:26:26.659Z,10.38
2022-10-22T22:28:57.664Z,10.90
2022-10-22T22:31:30.975Z,8.38
2022-10-22T22:34:02.951Z,7.93
2022-10-22T22:39:00.107Z,6.50
2022-10-22T22:41:26.744Z,8.70
2022-10-22T22:46:25.194Z,7.88
2022-10-22T22:48:51.991Z,7.53
2022-10-22T22:51:18.688Z,7.22
2022-10-22T22:53:46.072Z,7.55
2022-10-22T22:56:24.082Z,6.82
2022-10-22T22:58:50.833Z,6.60
2022-10-22T23:01:17.495Z,6.72
2022-10-22T23:03:46.535Z,6.97
2022-10-22T23:06:14.121Z,5.93
2022-10-22T23:08:41.764Z,7.30
2022-10-22T23:11:11.645Z,8.63
2022-10-22T23:13:38.960Z,7.10
2022-10-22T23:16:14.275Z,6.50
2022-10-22T23:18:41.493Z,8.00
2022-10-22T23:21:13.318Z,6.88
2022-10-22T23:23:47.128Z,7.40
2022-10-22T23:26:15.087Z,6.80
2022-10-22T23:28:41.728Z,7.43
2022-10-22T23:31:12.304Z,6.63
2022-10-22T23:33:38.984Z,6.18
2022-10-22T23:36:08.561Z,5.68
2022-10-22T23:38:37.104Z,6.50
2022-10-22T23:41:04.452Z,6.50
2022-10-22T23:43:32.236Z,6.57
2022-10-22T23:45:59.071Z,6.70
2022-10-22T23:48:25.901Z,6.13
2022-10-22T23:53:20.206Z,7.10
2022-10-22T23:55:47.115Z,7.63
2022-10-22T23:58:13.858Z,7.07
